createdAt,value
2018-05-07T03:01:06.421Z,8.24
2018-05-07T03:03:06.683Z,8.31
2018-05-07T03:04:07.643Z,8.30
2018-05-07T03:05:07.336Z,8.27
2018-05-07T03:06:07.259Z,8.23
2018-05-07T03:07:07.523Z,8.23
2018-05-07T03:08:07.701Z,8.09
2018-05-07T03:09:08.011Z,7.98
2018-05-07T03:10:08.439Z,7.93
2018-05-07T03:11:08.619Z,7.85
2018-05-07T03:12:08.333Z,7.91
2018-05-07T03:13:09.100Z,7.94
2018-05-07T03:14:06.738Z,7.88
2018-05-07T03:15:06.495Z,7.97
2018-05-07T03:16:06.716Z,7.95
2018-05-07T03:17:06.921Z,7.98
2018-05-07T03:18:07.050Z,8.08
2018-05-07T03:19:07.090Z,8.03
2018-05-07T03:20:07.338Z,8.06
2018-05-07T03:21:07.400Z,8.12
2018-05-07T03:22:07.827Z,8.05
2018-05-07T03:23:08.354Z,8.09
2018-05-07T03:24:18.618Z,8.01
2018-05-07T03:25:10.518Z,7.95
2018-05-07T03:26:11.347Z,7.98
2018-05-07T03:44:06.105Z,7.57
2018-05-07T03:47:06.934Z,7.50
2018-05-07T03:48:07.338Z,7.53
2018-05-07T03:49:06.986Z,7.54
2018-05-07T03:50:07.357Z,7.43
2018-05-07T03:51:08.100Z,7.58
2018-05-07T03:52:08.393Z,7.58
2018-05-07T03:53:15.717Z,7.56
2018-05-07T04:00:42.809Z,7.60
2018-05-07T04:05:26.202Z,7.58
2018-05-07T04:06:16.591Z,7.56
2018-05-07T04:09:15.482Z,7.63
2018-05-07T04:10:16.622Z,7.63
2018-05-07T04:15:22.692Z,7.47
2018-05-07T04:16:06.970Z,7.48
2018-05-07T04:17:05.301Z,7.50
2018-05-07T04:18:05.210Z,7.35
2018-05-07T04:19:05.691Z,7.36
2018-05-07T04:20:06.635Z,7.39
2018-05-07T04:21:06.420Z,7.28
2018-05-07T04:22:07.419Z,7.33
2018-05-07T04:23:08.388Z,7.31
2018-05-07T04:26:30.624Z,7.29
2018-05-07T04:27:24.517Z,7.23
2018-05-07T04:28:21.556Z,7.24
2018-05-07T04:29:21.588Z,7.18
2018-05-07T04:30:22.513Z,7.24
2018-05-07T04:31:22.385Z,7.21
2018-05-07T04:32:21.937Z,7.21
2018-05-07T04:33:23.586Z,7.32
2018-05-07T04:34:24.052Z,7.24
2018-05-07T04:35:25.638Z,7.31
2018-05-07T04:36:23.183Z,7.38
2018-05-07T04:37:23.113Z,7.28
2018-05-07T04:38:23.522Z,7.40
2018-05-07T04:39:22.565Z,7.50
2018-05-07T04:40:21.622Z,7.42
2018-05-07T04:41:23.109Z,7.42
2018-05-07T04:42:22.138Z,7.40
2018-05-07T04:43:21.915Z,7.39
2018-05-07T04:44:22.329Z,7.39
2018-05-07T04:45:22.339Z,7.48
2018-05-07T04:46:23.490Z,7.43
2018-05-07T04:47:22.820Z,7.45
2018-05-07T04:48:23.596Z,7.53
2018-05-07T04:49:23.736Z,7.45
2018-05-07T04:50:23.480Z,7.45
2018-05-07T04:51:23.340Z,7.60
2018-05-07T04:52:23.808Z,7.66
2018-05-07T04:53:23.589Z,7.69
2018-05-07T04:54:24.744Z,7.67
2018-05-07T04:55:24.369Z,7.79
2018-05-07T04:56:24.507Z,7.77
2018-05-07T04:57:24.343Z,7.90
2018-05-07T04:58:24.613Z,7.91
2018-05-07T04:59:25.634Z,7.85
2018-05-07T05:00:25.270Z,7.85
2018-05-07T05:01:25.230Z,7.95
2018-05-07T05:02:26.059Z,8.00
2018-05-07T05:05:07.796Z,8.10
2018-05-07T05:06:06.876Z,8.08
2018-05-07T05:07:08.807Z,8.19
2018-05-07T05:08:10.681Z,8.24
2018-05-07T05:09:07.075Z,8.24
2018-05-07T05:10:06.715Z,8.27
2018-05-07T05:11:06.855Z,8.23
2018-05-07T05:12:07.044Z,8.26
2018-05-07T05:13:07.161Z,8.24
2018-05-07T05:14:07.321Z,8.28
2018-05-07T05:15:07.474Z,8.23
2018-05-07T05:16:07.632Z,8.27
2018-05-07T05:17:07.754Z,8.27
2018-05-07T05:18:17.882Z,8.41
2018-05-07T05:19:10.241Z,8.33
2018-05-07T05:20:19.305Z,8.45
2018-05-07T05:22:11.095Z,8.61
2018-05-07T05:23:10.899Z,8.61
2018-05-07T05:24:12.408Z,8.69
2018-05-07T05:25:11.300Z,8.76
2018-05-07T05:26:09.180Z,8.87
2018-05-07T05:27:14.187Z,8.91
2018-05-07T05:28:09.491Z,8.99
2018-05-07T05:29:09.629Z,9.03
2018-05-07T05:30:09.917Z,9.11
2018-05-07T05:31:09.887Z,9.23
2018-05-07T05:32:10.317Z,9.36
2018-05-07T05:33:10.786Z,9.44
2018-05-07T05:34:10.281Z,9.54
2018-05-07T05:35:10.449Z,9.64
2018-05-07T05:36:10.638Z,9.68
2018-05-07T05:40:33.527Z,9.92
2018-05-07T05:43:31.173Z,10.04
2018-05-07T05:44:31.470Z,10.25
2018-05-07T05:45:31.930Z,10.26
2018-05-07T05:46:42.409Z,10.25
2018-05-07T05:47:42.530Z,10.46
2018-05-07T05:48:35.974Z,10.59
2018-05-07T05:49:36.461Z,10.61
2018-05-07T05:50:34.539Z,10.59
2018-05-07T05:51:35.457Z,10.71
2018-05-07T05:52:33.372Z,10.75
2018-05-07T05:53:32.837Z,10.67
2018-05-07T05:54:32.960Z,10.72
2018-05-07T06:00:18.317Z,11.23
2018-05-07T06:01:31.486Z,11.40
2018-05-07T06:02:29.952Z,11.47
2018-05-07T06:15:07.273Z,12.40
2018-05-07T06:16:07.815Z,12.54
2018-05-07T06:17:08.241Z,12.60
2018-05-07T06:18:19.997Z,12.61
2018-05-07T06:19:18.683Z,12.76
2018-05-07T06:20:19.305Z,12.86
2018-05-07T06:21:19.022Z,12.97
2018-05-07T06:22:25.040Z,13.01
2018-05-07T06:27:12.054Z,13.46
2018-05-07T06:28:12.723Z,13.52
2018-05-07T06:29:12.684Z,13.60
2018-05-07T06:30:12.619Z,13.70
2018-05-07T06:31:14.046Z,13.71
2018-05-07T06:32:14.682Z,13.71
2018-05-07T06:35:02.540Z,13.85
2018-05-07T06:35:53.803Z,13.97
2018-05-07T06:36:54.443Z,14.04
2018-05-07T06:37:58.236Z,14.15
2018-05-07T06:38:52.704Z,14.41
2018-05-07T06:43:05.713Z,14.63
2018-05-07T06:50:17.073Z,15.55
2018-05-07T06:51:17.226Z,15.68
2018-05-07T06:52:17.037Z,15.75
2018-05-07T06:57:15.784Z,16.24
2018-05-07T06:58:17.211Z,16.26
2018-05-07T06:59:16.060Z,16.35
2018-05-07T07:00:16.203Z,16.46
2018-05-07T07:01:16.340Z,16.53
2018-05-07T07:02:16.647Z,16.57
2018-05-07T07:03:16.806Z,16.56
2018-05-07T07:04:16.915Z,16.54
2018-05-07T07:05:17.662Z,16.64
2018-05-07T07:06:17.290Z,16.60
2018-05-07T07:07:21.026Z,16.53
2018-05-07T07:08:19.601Z,16.75
2018-05-07T07:09:22.163Z,16.91
2018-05-07T07:10:24.573Z,17.08
2018-05-07T07:11:21.264Z,17.20
2018-05-07T07:12:20.067Z,17.20
2018-05-07T07:13:18.452Z,17.27
2018-05-07T07:14:18.581Z,17.44
2018-05-07T07:15:19.912Z,17.26
2018-05-07T07:16:20.400Z,17.41
2018-05-07T07:17:20.865Z,17.34
2018-05-07T07:18:20.384Z,17.39
2018-05-07T07:19:19.501Z,17.63
2018-05-07T07:20:20.761Z,17.74
2018-05-07T07:21:20.793Z,17.72
2018-05-07T07:22:20.874Z,17.85
2018-05-07T07:23:20.428Z,17.82
2018-05-07T07:24:20.687Z,17.94
2018-05-07T07:25:21.348Z,18.08
2018-05-07T07:26:21.622Z,18.10
2018-05-07T07:27:20.895Z,18.23
2018-05-07T07:28:21.097Z,18.11
2018-05-07T07:29:22.539Z,18.15
2018-05-07T07:30:27.693Z,18.20
2018-05-07T07:31:21.580Z,18.38
2018-05-07T07:32:21.855Z,18.58
2018-05-07T07:33:21.915Z,18.56
2018-05-07T07:34:21.989Z,18.74
2018-05-07T07:35:22.278Z,18.65
2018-05-07T07:36:22.571Z,18.74
2018-05-07T07:37:22.669Z,18.86
2018-05-07T07:38:22.783Z,18.83
2018-05-07T07:39:23.023Z,18.83
2018-05-07T07:40:23.211Z,18.95
2018-05-07T07:41:23.312Z,19.04
2018-05-07T07:42:23.452Z,19.09
2018-05-07T07:43:23.727Z,19.12
2018-05-07T07:44:23.848Z,19.19
2018-05-07T07:45:26.001Z,19.19
2018-05-07T07:46:35.477Z,19.26
2018-05-07T07:47:28.929Z,19.31
2018-05-07T07:48:36.461Z,19.33
2018-05-07T07:49:27.106Z,19.55
2018-05-07T07:50:26.950Z,19.69
2018-05-07T07:52:38.282Z,20.18
2018-05-07T07:55:08.993Z,20.85
2018-05-07T07:56:11.203Z,21.30
2018-05-07T07:57:11.533Z,21.72
2018-05-07T07:58:11.637Z,22.11
2018-05-07T07:59:10.654Z,22.44
2018-05-07T08:00:09.731Z,22.76
2018-05-07T08:01:09.906Z,22.93
2018-05-07T08:02:10.027Z,23.21
2018-05-07T08:03:10.236Z,23.39
2018-05-07T08:04:10.408Z,23.83
2018-05-07T08:05:10.566Z,24.17
2018-05-07T08:06:10.767Z,24.24
2018-05-07T08:07:10.888Z,24.36
2018-05-07T08:08:11.088Z,24.69
2018-05-07T08:09:11.209Z,24.76
2018-05-07T08:10:11.420Z,24.68
2018-05-07T08:11:11.583Z,24.30
2018-05-07T08:12:11.787Z,24.60
2018-05-07T08:13:11.897Z,24.81
2018-05-07T08:14:12.037Z,25.04
2018-05-07T08:15:12.178Z,25.23
2018-05-07T08:16:12.317Z,24.86
2018-05-07T08:17:12.526Z,24.92
2018-05-07T08:18:12.693Z,25.08
2018-05-07T08:19:12.857Z,25.18
2018-05-07T08:20:13.027Z,25.40
2018-05-07T08:21:13.205Z,25.70
2018-05-07T08:22:13.388Z,25.78
2018-05-07T08:23:13.540Z,25.65
2018-05-07T08:24:13.671Z,25.54
2018-05-07T08:25:13.847Z,25.69
2018-05-07T08:26:14.022Z,25.77
2018-05-07T08:27:14.162Z,25.83
2018-05-07T08:28:14.350Z,25.96
2018-05-07T08:29:14.518Z,26.07
2018-05-07T08:30:14.616Z,25.95
2018-05-07T08:31:14.930Z,26.05
2018-05-07T08:32:15.050Z,26.36
2018-05-07T08:33:15.199Z,26.22
2018-05-07T08:34:15.384Z,26.56
2018-05-07T08:35:15.630Z,26.47
2018-05-07T08:36:15.718Z,26.22
2018-05-07T08:37:15.830Z,26.56
2018-05-07T08:38:16.057Z,26.80
2018-05-07T08:39:16.240Z,26.81
2018-05-07T08:40:16.391Z,27.07
2018-05-07T08:41:16.575Z,26.53
2018-05-07T08:42:16.670Z,26.73
2018-05-07T08:43:16.973Z,27.02
2018-05-07T08:44:17.063Z,27.14
2018-05-07T08:45:17.233Z,27.20
2018-05-07T08:46:17.383Z,26.77
2018-05-07T08:47:17.524Z,26.58
2018-05-07T08:48:17.731Z,26.23
2018-05-07T08:49:17.826Z,26.44
2018-05-07T08:50:18.091Z,26.18
2018-05-07T08:51:18.221Z,26.03
2018-05-07T08:52:18.383Z,25.69
2018-05-07T08:53:18.670Z,25.48
2018-05-07T08:54:18.734Z,25.35
2018-05-07T08:55:18.888Z,25.01
2018-05-07T08:56:18.997Z,24.05
2018-05-07T08:57:19.297Z,23.99
2018-05-07T08:58:19.378Z,23.99
2018-05-07T08:59:19.665Z,24.23
2018-05-07T09:00:19.736Z,24.26
2018-05-07T09:01:20.013Z,24.11
2018-05-07T09:02:20.071Z,24.03
2018-05-07T09:03:20.231Z,24.01
2018-05-07T09:04:20.421Z,23.99
2018-05-07T09:05:20.617Z,23.87
2018-05-07T09:06:20.775Z,23.91
2018-05-07T09:07:20.928Z,23.71
2018-05-07T09:08:21.147Z,23.36
2018-05-07T09:09:21.267Z,23.43
2018-05-07T09:10:21.463Z,23.37
2018-05-07T09:11:21.601Z,23.46
2018-05-07T09:12:21.775Z,23.20
2018-05-07T09:13:21.979Z,23.20
2018-05-07T09:14:22.095Z,23.23
2018-05-07T09:15:22.352Z,23.23
2018-05-07T09:16:22.500Z,23.24
2018-05-07T09:17:22.651Z,23.20
2018-05-07T09:18:22.784Z,23.27
2018-05-07T09:19:22.959Z,23.24
2018-05-07T09:20:23.084Z,23.40
2018-05-07T09:21:23.266Z,23.61
2018-05-07T09:22:23.478Z,23.77
2018-05-07T09:23:23.583Z,24.06
2018-05-07T09:24:23.815Z,24.10
2018-05-07T09:25:23.914Z,24.54
2018-05-07T09:26:24.130Z,24.91
2018-05-07T09:27:24.231Z,25.25
2018-05-07T09:28:24.436Z,25.21
2018-05-07T09:29:24.565Z,25.63
2018-05-07T09:30:24.844Z,25.77
2018-05-07T09:31:25.035Z,25.85
2018-05-07T09:32:25.101Z,26.09
2018-05-07T09:33:25.218Z,26.23
2018-05-07T09:34:25.451Z,26.66
2018-05-07T09:35:25.568Z,26.78
2018-05-07T09:36:25.835Z,26.95
2018-05-07T09:37:25.887Z,27.25
2018-05-07T09:38:26.101Z,27.22
2018-05-07T09:39:26.269Z,27.52
2018-05-07T09:40:26.400Z,27.93
2018-05-07T09:41:26.538Z,28.10
2018-05-07T09:42:26.875Z,28.08
2018-05-07T09:43:27.026Z,28.29
2018-05-07T09:44:27.136Z,28.56
2018-05-07T09:45:27.458Z,28.70
2018-05-07T09:46:27.580Z,28.66
2018-05-07T09:47:27.756Z,28.63
2018-05-07T09:48:27.939Z,28.74
2018-05-07T09:49:28.086Z,29.27
2018-05-07T09:50:28.345Z,29.44
2018-05-07T09:51:28.412Z,29.39
2018-05-07T09:52:28.615Z,29.26
2018-05-07T09:53:28.819Z,29.31
2018-05-07T09:54:28.928Z,29.29
2018-05-07T09:55:29.178Z,29.35
2018-05-07T09:56:29.247Z,29.41
2018-05-07T09:57:29.496Z,29.35
2018-05-07T09:58:29.612Z,29.38
2018-05-07T09:59:29.761Z,29.56
2018-05-07T10:00:29.968Z,29.59
2018-05-07T10:01:30.158Z,29.90
2018-05-07T10:02:30.317Z,29.54
2018-05-07T10:03:30.490Z,30.13
2018-05-07T10:04:30.680Z,30.30
2018-05-07T10:05:30.754Z,30.08
2018-05-07T10:06:30.977Z,30.08
2018-05-07T10:07:31.147Z,30.15
2018-05-07T10:08:31.290Z,30.19
2018-05-07T10:09:31.582Z,30.39
2018-05-07T10:10:31.684Z,30.12
2018-05-07T10:11:31.817Z,29.87
2018-05-07T10:12:31.981Z,30.37
2018-05-07T10:13:32.143Z,30.57
2018-05-07T10:14:32.399Z,30.06
2018-05-07T10:15:32.572Z,30.46
2018-05-07T10:16:32.735Z,30.66
2018-05-07T10:17:32.854Z,31.09
2018-05-07T10:18:33.069Z,31.28
2018-05-07T10:19:33.190Z,31.17
2018-05-07T10:20:33.395Z,31.20
2018-05-07T10:21:33.570Z,31.14
2018-05-07T10:22:33.767Z,31.40
2018-05-07T10:23:33.941Z,31.20
2018-05-07T10:24:34.059Z,31.27
2018-05-07T10:25:34.279Z,31.42
2018-05-07T10:26:34.383Z,31.17
2018-05-07T10:27:34.597Z,31.18
2018-05-07T10:28:34.718Z,31.42
2018-05-07T10:29:34.973Z,31.52
2018-05-07T10:30:35.086Z,31.78
2018-05-07T10:31:35.360Z,32.15
2018-05-07T10:32:35.490Z,32.51
2018-05-07T10:33:35.651Z,32.55
2018-05-07T10:34:35.850Z,32.55
2018-05-07T10:35:36.067Z,32.67
2018-05-07T10:36:36.238Z,32.77
2018-05-07T10:37:36.403Z,32.65
2018-05-07T10:38:36.528Z,32.40
2018-05-07T10:39:36.696Z,32.55
2018-05-07T10:40:36.816Z,32.19
2018-05-07T10:41:37.102Z,32.51
2018-05-07T10:42:37.257Z,32.59
2018-05-07T10:43:37.399Z,32.55
2018-05-07T10:44:37.570Z,32.55
2018-05-07T10:45:37.752Z,32.14
2018-05-07T10:46:37.941Z,32.03
2018-05-07T10:47:38.129Z,32.15
2018-05-07T10:48:38.314Z,31.71
2018-05-07T10:49:38.497Z,31.73
2018-05-07T10:50:38.664Z,31.73
2018-05-07T10:51:38.861Z,31.76
2018-05-07T10:52:39.055Z,31.96
2018-05-07T10:53:39.221Z,32.30
2018-05-07T10:54:39.362Z,32.33
2018-05-07T10:55:39.565Z,31.81
2018-05-07T10:56:39.746Z,31.70
2018-05-07T10:57:39.895Z,31.77
2018-05-07T10:58:40.064Z,32.04
2018-05-07T10:59:40.277Z,32.37
2018-05-07T11:00:40.432Z,32.56
2018-05-07T11:01:40.587Z,31.94
2018-05-07T11:02:40.694Z,32.04
2018-05-07T11:03:40.877Z,32.40
2018-05-07T11:04:41.072Z,32.15
2018-05-07T11:05:41.188Z,31.96
2018-05-07T11:06:41.412Z,32.11
2018-05-07T11:07:41.615Z,32.01
2018-05-07T11:08:41.745Z,32.03
2018-05-07T11:09:41.983Z,31.46
2018-05-07T11:10:42.177Z,31.56
2018-05-07T11:11:42.350Z,31.66
2018-05-07T11:12:42.463Z,32.04
2018-05-07T11:13:42.663Z,32.22
2018-05-07T11:14:42.855Z,32.09
2018-05-07T11:15:43.006Z,32.52
2018-05-07T11:16:43.153Z,32.82
2018-05-07T11:17:43.316Z,32.59
2018-05-07T11:18:43.499Z,32.43
2018-05-07T11:19:43.756Z,32.48
2018-05-07T11:20:43.849Z,32.58
2018-05-07T11:21:43.995Z,32.82
2018-05-07T11:22:44.179Z,32.86
2018-05-07T11:23:44.334Z,32.27
2018-05-07T11:24:44.589Z,32.46
2018-05-07T11:25:44.675Z,32.77
2018-05-07T11:26:44.863Z,32.77
2018-05-07T11:27:45.086Z,32.96
2018-05-07T11:28:45.241Z,33.07
2018-05-07T11:29:45.461Z,33.32
2018-05-07T11:30:45.600Z,33.43
2018-05-07T11:31:45.747Z,33.27
2018-05-07T11:32:45.931Z,33.47
2018-05-07T11:33:46.163Z,33.27
2018-05-07T11:34:46.290Z,33.37
2018-05-07T11:35:46.461Z,33.34
2018-05-07T11:36:46.662Z,33.39
2018-05-07T11:37:46.825Z,33.40
2018-05-07T11:38:47.039Z,33.04
2018-05-07T11:39:47.133Z,33.32
2018-05-07T11:40:47.283Z,33.32
2018-05-07T11:41:47.537Z,33.12
2018-05-07T11:42:47.743Z,33.04
2018-05-07T11:43:47.892Z,32.96
2018-05-07T11:44:48.006Z,33.12
2018-05-07T11:45:48.229Z,33.36
2018-05-07T11:46:48.381Z,33.01
2018-05-07T11:47:48.585Z,33.00
2018-05-07T11:48:48.752Z,33.62
2018-05-07T11:49:48.902Z,33.50
2018-05-07T11:50:49.035Z,33.80
2018-05-07T11:51:49.259Z,33.37
2018-05-07T11:52:49.462Z,33.20
2018-05-07T11:53:49.631Z,33.14
2018-05-07T11:54:49.816Z,33.02
2018-05-07T11:55:50.003Z,32.97
2018-05-07T11:56:50.150Z,32.89
2018-05-07T11:57:50.307Z,32.77
2018-05-07T11:58:50.525Z,33.00
2018-05-07T11:59:50.687Z,33.11
2018-05-07T12:00:50.874Z,33.53
2018-05-07T12:01:51.087Z,33.40
2018-05-07T12:02:51.268Z,33.47
2018-05-07T12:03:51.427Z,34.02
2018-05-07T12:04:51.571Z,33.47
2018-05-07T12:05:51.762Z,33.46
2018-05-07T12:06:51.938Z,33.46
2018-05-07T12:07:52.104Z,33.86
2018-05-07T12:08:52.268Z,33.99
2018-05-07T12:09:52.488Z,34.27
2018-05-07T12:10:52.652Z,34.21
2018-05-07T12:11:52.753Z,34.17
2018-05-07T12:12:52.986Z,34.14
2018-05-07T12:13:53.170Z,34.11
2018-05-07T12:14:53.277Z,34.36
2018-05-07T12:15:53.501Z,34.10
2018-05-07T12:16:53.653Z,33.80
2018-05-07T12:17:53.824Z,33.53
2018-05-07T12:18:53.969Z,33.99
2018-05-07T12:19:54.238Z,34.18
2018-05-07T12:20:54.352Z,34.18
2018-05-07T12:21:54.549Z,34.30
2018-05-07T12:22:54.709Z,34.25
2018-05-07T12:23:54.888Z,34.18
2018-05-07T12:24:55.030Z,34.42
2018-05-07T12:25:55.216Z,34.77
2018-05-07T12:26:55.375Z,34.85
2018-05-07T12:27:55.592Z,34.42
2018-05-07T12:28:55.801Z,34.61
2018-05-07T12:29:56.010Z,35.15
2018-05-07T12:30:56.213Z,34.83
2018-05-07T12:31:56.354Z,35.08
2018-05-07T12:32:56.491Z,35.23
2018-05-07T12:33:56.654Z,34.92
2018-05-07T12:34:56.808Z,34.58
2018-05-07T12:35:56.983Z,34.36
2018-05-07T12:36:57.122Z,34.10
2018-05-07T12:37:57.339Z,33.83
2018-05-07T12:38:57.481Z,33.89
2018-05-07T12:39:57.725Z,33.87
2018-05-07T12:40:57.833Z,34.17
2018-05-07T12:41:58.088Z,34.33
2018-05-07T12:42:58.268Z,33.94
2018-05-07T12:43:58.410Z,34.24
2018-05-07T12:44:58.645Z,34.36
2018-05-07T12:45:58.791Z,34.58
2018-05-07T12:46:58.981Z,34.75
2018-05-07T12:47:59.189Z,34.95
2018-05-07T12:48:59.420Z,35.12
2018-05-07T12:49:59.478Z,34.60
2018-05-07T12:50:59.688Z,34.83
2018-05-07T12:51:59.822Z,34.74
2018-05-07T12:53:00.030Z,34.77
2018-05-07T12:54:00.159Z,35.08
2018-05-07T12:55:00.406Z,34.83
2018-05-07T12:56:00.541Z,34.77
2018-05-07T12:57:00.744Z,35.02
2018-05-07T12:58:00.868Z,35.05
2018-05-07T12:59:01.149Z,35.05
2018-05-07T13:00:01.237Z,35.22
2018-05-07T13:01:01.372Z,35.05
2018-05-07T13:02:01.633Z,35.14
2018-05-07T13:03:01.802Z,35.07
2018-05-07T13:04:01.893Z,34.92
2018-05-07T13:05:02.173Z,34.88
2018-05-07T13:06:02.362Z,35.04
2018-05-07T13:07:02.470Z,34.77
2018-05-07T13:08:02.663Z,34.90
2018-05-07T13:09:02.791Z,34.97
2018-05-07T13:10:02.991Z,35.23
2018-05-07T13:11:03.200Z,35.17
2018-05-07T13:12:03.349Z,35.41
2018-05-07T13:13:03.644Z,35.37
2018-05-07T13:14:03.675Z,35.44
2018-05-07T13:15:03.847Z,35.73
2018-05-07T13:16:04.056Z,35.82
2018-05-07T13:17:04.334Z,35.78
2018-05-07T13:18:04.408Z,35.89
2018-05-07T13:19:04.584Z,36.14
2018-05-07T13:20:04.835Z,36.33
2018-05-07T13:21:04.997Z,36.05
2018-05-07T13:22:05.166Z,35.30
2018-05-07T13:23:05.359Z,35.18
2018-05-07T13:24:05.480Z,35.44
2018-05-07T13:25:05.676Z,35.19
2018-05-07T13:26:05.869Z,35.19
2018-05-07T13:27:06.060Z,35.44
2018-05-07T13:28:06.255Z,35.23
2018-05-07T13:29:06.341Z,35.19
2018-05-07T13:30:06.528Z,35.42
2018-05-07T13:31:06.787Z,35.61
2018-05-07T13:32:06.930Z,35.88
2018-05-07T13:33:07.157Z,35.76
2018-05-07T13:34:07.239Z,35.49
2018-05-07T13:35:07.507Z,35.61
2018-05-07T13:36:07.679Z,35.78
2018-05-07T13:37:07.830Z,36.14
2018-05-07T13:38:07.958Z,36.25
2018-05-07T13:39:08.238Z,36.30
2018-05-07T13:40:08.352Z,35.51
2018-05-07T13:41:08.590Z,35.04
2018-05-07T13:42:08.791Z,35.22
2018-05-07T13:43:08.915Z,35.30
2018-05-07T13:44:09.061Z,35.63
2018-05-07T13:45:09.301Z,35.82
2018-05-07T13:46:09.500Z,35.48
2018-05-07T13:47:09.727Z,35.79
2018-05-07T13:48:09.847Z,35.41
2018-05-07T13:49:10.054Z,35.10
2018-05-07T13:50:10.172Z,34.93
2018-05-07T13:51:10.418Z,34.90
2018-05-07T13:52:10.491Z,34.92
2018-05-07T13:53:10.782Z,35.23
2018-05-07T13:54:10.899Z,34.67
2018-05-07T13:55:11.025Z,34.62
2018-05-07T13:56:11.230Z,35.04
2018-05-07T13:57:11.344Z,35.31
2018-05-07T13:58:11.604Z,35.19
2018-05-07T13:59:11.765Z,34.51
2018-05-07T14:00:11.934Z,34.30
2018-05-07T14:01:12.151Z,34.36
2018-05-07T14:02:12.352Z,34.45
2018-05-07T14:03:12.536Z,34.24
2018-05-07T14:04:12.681Z,34.67
2018-05-07T14:05:12.912Z,34.93
2018-05-07T14:06:13.066Z,34.86
2018-05-07T14:07:13.193Z,34.58
2018-05-07T14:08:13.409Z,34.99
2018-05-07T14:09:13.583Z,34.74
2018-05-07T14:10:13.762Z,33.96
2018-05-07T14:11:13.980Z,34.03
2018-05-07T14:12:14.156Z,34.25
2018-05-07T14:13:14.260Z,33.96
2018-05-07T14:14:14.455Z,34.14
2018-05-07T14:15:14.697Z,34.36
2018-05-07T14:16:14.886Z,34.14
2018-05-07T14:17:15.020Z,34.01
2018-05-07T14:18:15.139Z,34.27
2018-05-07T14:19:15.395Z,34.21
2018-05-07T14:20:15.580Z,34.17
2018-05-07T14:21:15.731Z,34.38
2018-05-07T14:22:15.899Z,34.42
2018-05-07T14:23:16.066Z,34.11
2018-05-07T14:24:16.289Z,33.79
2018-05-07T14:25:16.441Z,34.05
2018-05-07T14:26:16.698Z,34.39
2018-05-07T14:27:16.759Z,34.60
2018-05-07T14:28:16.971Z,35.11
2018-05-07T14:29:17.181Z,35.18
2018-05-07T14:30:17.269Z,34.78
2018-05-07T14:31:17.477Z,34.32
2018-05-07T14:32:17.701Z,34.52
2018-05-07T14:33:17.878Z,35.10
2018-05-07T14:34:17.993Z,34.55
2018-05-07T14:35:18.222Z,33.95
2018-05-07T14:36:18.399Z,34.30
2018-05-07T14:37:18.633Z,33.90
2018-05-07T14:38:18.776Z,34.21
2018-05-07T14:39:18.899Z,34.55
2018-05-07T14:40:19.083Z,34.35
2018-05-07T14:41:19.258Z,34.17
2018-05-07T14:42:19.494Z,34.35
2018-05-07T14:43:19.604Z,34.47
2018-05-07T14:44:19.751Z,34.18
2018-05-07T14:45:19.954Z,34.40
2018-05-07T14:46:20.155Z,34.36
2018-05-07T14:47:20.367Z,34.62
2018-05-07T14:48:20.620Z,34.62
2018-05-07T14:49:20.796Z,34.70
2018-05-07T14:50:21.004Z,34.96
2018-05-07T14:51:21.075Z,35.08
2018-05-07T14:52:21.286Z,34.95
2018-05-07T14:53:21.535Z,34.43
2018-05-07T14:54:21.693Z,33.95
2018-05-07T14:55:21.829Z,33.64
2018-05-07T14:56:22.017Z,33.77
2018-05-07T14:57:22.222Z,33.15
2018-05-07T14:58:22.366Z,33.24
2018-05-07T14:59:22.538Z,33.24
2018-05-07T15:00:22.720Z,33.53
2018-05-07T15:01:22.874Z,33.37
2018-05-07T15:02:23.113Z,33.53
2018-05-07T15:03:23.244Z,33.59
2018-05-07T15:04:23.407Z,33.81
2018-05-07T15:05:23.561Z,33.45
2018-05-07T15:06:23.769Z,33.47
2018-05-07T15:07:23.939Z,33.73
2018-05-07T15:08:24.153Z,33.81
2018-05-07T15:09:24.319Z,33.84
2018-05-07T15:10:24.458Z,33.80
2018-05-07T15:11:25.383Z,33.80
2018-05-07T15:12:24.829Z,34.02
2018-05-07T15:13:24.941Z,33.36
2018-05-07T15:14:25.192Z,33.15
2018-05-07T15:15:25.359Z,33.46
2018-05-07T15:16:25.518Z,33.53
2018-05-07T15:17:25.746Z,33.28
2018-05-07T15:18:25.875Z,32.89
2018-05-07T15:19:25.991Z,33.11
2018-05-07T15:20:26.202Z,33.20
2018-05-07T15:21:26.335Z,33.09
2018-05-07T15:22:26.581Z,32.77
2018-05-07T15:23:26.767Z,32.90
2018-05-07T15:24:26.920Z,32.89
2018-05-07T15:25:27.163Z,33.00
2018-05-07T15:26:27.353Z,33.02
2018-05-07T15:27:27.509Z,32.45
2018-05-07T15:28:27.693Z,32.71
2018-05-07T15:29:27.909Z,32.53
2018-05-07T15:30:28.066Z,32.22
2018-05-07T15:31:28.206Z,32.36
2018-05-07T15:32:28.416Z,32.37
2018-05-07T15:33:28.558Z,32.49
2018-05-07T15:34:28.778Z,32.46
2018-05-07T15:35:28.985Z,32.41
2018-05-07T15:36:29.071Z,32.52
2018-05-07T15:37:29.275Z,32.45
2018-05-07T15:38:29.472Z,32.01
2018-05-07T15:39:29.594Z,31.76
2018-05-07T15:40:29.774Z,31.55
2018-05-07T15:41:29.978Z,31.58
2018-05-07T15:42:30.164Z,31.73
2018-05-07T15:43:30.368Z,31.58
2018-05-07T15:44:30.517Z,31.49
2018-05-07T15:45:30.620Z,31.65
2018-05-07T15:46:30.866Z,31.59
2018-05-07T15:47:31.093Z,31.59
2018-05-07T15:48:31.209Z,31.43
2018-05-07T15:49:31.422Z,31.37
2018-05-07T15:50:31.571Z,31.46
2018-05-07T15:51:31.787Z,31.49
2018-05-07T15:52:31.949Z,30.83
2018-05-07T15:53:32.082Z,30.43
2018-05-07T15:54:32.258Z,30.32
2018-05-07T15:55:32.473Z,30.28
2018-05-07T15:56:32.592Z,30.57
2018-05-07T15:57:32.767Z,30.87
2018-05-07T15:58:32.974Z,30.73
2018-05-07T15:59:33.156Z,30.83
2018-05-07T16:00:33.340Z,30.87
2018-05-07T16:01:33.474Z,31.00
2018-05-07T16:02:33.779Z,30.85
2018-05-07T16:03:33.882Z,30.97
2018-05-07T16:04:34.080Z,30.48
2018-05-07T16:05:34.257Z,30.46
2018-05-07T16:06:34.399Z,30.23
2018-05-07T16:07:34.526Z,29.82
2018-05-07T16:08:34.769Z,29.61
2018-05-07T16:09:34.894Z,30.08
2018-05-07T16:10:35.072Z,29.95
2018-05-07T16:11:35.211Z,29.63
2018-05-07T16:12:35.415Z,29.75
2018-05-07T16:13:35.576Z,29.75
2018-05-07T16:14:35.745Z,29.73
2018-05-07T16:15:35.959Z,29.78
2018-05-07T16:16:36.098Z,29.45
2018-05-07T16:17:36.265Z,29.29
2018-05-07T16:18:36.433Z,29.26
2018-05-07T16:19:36.675Z,29.39
2018-05-07T16:20:36.733Z,29.19
2018-05-07T16:21:36.989Z,28.85
2018-05-07T16:22:37.129Z,28.66
2018-05-07T16:23:37.301Z,28.86
2018-05-07T16:24:37.417Z,28.49
2018-05-07T16:25:37.653Z,28.29
2018-05-07T16:26:37.858Z,28.02
2018-05-07T16:27:37.994Z,27.65
2018-05-07T16:28:38.206Z,27.63
2018-05-07T16:29:38.348Z,27.55
2018-05-07T16:30:38.519Z,27.36
2018-05-07T16:31:38.674Z,27.32
2018-05-07T16:32:38.873Z,27.21
2018-05-07T16:33:39.055Z,27.21
2018-05-07T16:34:39.227Z,26.97
2018-05-07T16:35:39.354Z,26.88
2018-05-07T16:36:39.579Z,26.65
2018-05-07T16:37:39.653Z,26.52
2018-05-07T16:38:39.896Z,26.62
2018-05-07T16:39:40.072Z,26.60
2018-05-07T16:40:40.159Z,26.75
2018-05-07T16:41:40.362Z,26.53
2018-05-07T16:42:40.628Z,26.53
2018-05-07T16:43:40.752Z,26.60
2018-05-07T16:44:40.839Z,26.44
2018-05-07T16:45:41.105Z,26.21
2018-05-07T16:46:41.273Z,26.05
2018-05-07T16:47:41.475Z,25.84
2018-05-07T16:48:41.776Z,25.58
2018-05-07T16:49:41.779Z,25.35
2018-05-07T16:50:41.983Z,25.29
2018-05-07T16:51:42.171Z,25.18
2018-05-07T16:52:42.373Z,25.03
2018-05-07T16:53:42.480Z,24.80
2018-05-07T16:54:42.710Z,24.73
2018-05-07T16:55:42.829Z,24.68
2018-05-07T16:56:42.996Z,24.77
2018-05-07T16:57:43.221Z,24.68
2018-05-07T16:58:43.360Z,24.65
2018-05-07T16:59:43.525Z,24.69
2018-05-07T17:00:43.703Z,24.57
2018-05-07T17:01:43.870Z,24.54
2018-05-07T17:02:44.046Z,24.58
2018-05-07T17:03:44.256Z,24.51
2018-05-07T17:04:44.375Z,24.43
2018-05-07T17:05:44.544Z,24.47
2018-05-07T17:06:44.777Z,24.28
2018-05-07T17:07:44.925Z,24.28
2018-05-07T17:08:45.083Z,24.17
2018-05-07T17:09:45.252Z,24.21
2018-05-07T17:10:45.474Z,23.98
2018-05-07T17:11:45.615Z,24.03
2018-05-07T17:12:45.807Z,24.13
2018-05-07T17:13:45.963Z,24.06
2018-05-07T17:14:46.129Z,24.16
2018-05-07T17:15:46.251Z,24.10
2018-05-07T17:16:46.425Z,24.11
2018-05-07T17:17:46.596Z,23.99
2018-05-07T17:18:46.771Z,23.91
2018-05-07T17:19:46.980Z,23.88
2018-05-07T17:20:47.145Z,23.93
2018-05-07T17:21:47.302Z,23.93
2018-05-07T17:22:47.491Z,23.86
2018-05-07T17:23:47.632Z,23.76